sensor_id;sensor_type;location;lat;lon;timestamp;pressure;altitude;pressure_sealevel;temperature;humidity
11648;BME280;5880;52.342;9.662;2023-01-05T00:00:01;100421.81;;;14.53;58.72
11648;BME280;5880;52.342;9.662;2023-01-05T00:02:28;100418.03;;;14.54;58.82
11648;BME280;5880;52.342;9.662;2023-01-05T00:04:53;100417.97;;;14.49;58.66
11648;BME280;5880;52.342;9.662;2023-01-05T00:07:19;100412.47;;;14.49;58.78
11648;BME280;5880;52.342;9.662;2023-01-05T00:09:45;100414.44;;;14.54;58.53
11648;BME280;5880;52.342;9.662;2023-01-05T00:12:11;100421.81;;;14.53;58.62
11648;BME280;5880;52.342;9.662;2023-01-05T00:14:55;100403.34;;;14.49;58.91
11648;BME280;5880;52.342;9.662;2023-01-05T00:17:39;100428.19;;;14.54;58.98
11648;BME280;5880;52.342;9.662;2023-01-05T00:20:23;100419.94;;;14.54;59.03
11648;BME280;5880;52.342;9.662;2023-01-05T00:23:08;100427.91;;;14.55;59.07
11648;BME280;5880;52.342;9.662;2023-01-05T00:25:39;100420.81;;;14.60;59.12
11648;BME280;5880;52.342;9.662;2023-01-05T00:28:06;100426.31;;;14.60;59.07
11648;BME280;5880;52.342;9.662;2023-01-05T00:30:40;100425.75;;;14.63;59.04
11648;BME280;5880;52.342;9.662;2023-01-05T00:33:11;100427.44;;;14.64;59.15
11648;BME280;5880;52.342;9.662;2023-01-05T00:35:38;100414.50;;;14.64;59.17
11648;BME280;5880;52.342;9.662;2023-01-05T00:38:05;100419.75;;;14.66;59.14
11648;BME280;5880;52.342;9.662;2023-01-05T00:40:31;100414.75;;;14.63;59.09
11648;BME280;5880;52.342;9.662;2023-01-05T00:42:58;100420.56;;;14.66;59.06
11648;BME280;5880;52.342;9.662;2023-01-05T00:45:24;100417.00;;;14.66;59.12
11648;BME280;5880;52.342;9.662;2023-01-05T00:47:49;100435.72;;;14.69;58.86
11648;BME280;5880;52.342;9.662;2023-01-05T00:50:21;100445.91;;;14.68;59.02
11648;BME280;5880;52.342;9.662;2023-01-05T00:52:48;100435.72;;;14.69;58.88
11648;BME280;5880;52.342;9.662;2023-01-05T00:55:14;100435.13;;;14.62;58.85
11648;BME280;5880;52.342;9.662;2023-01-05T00:57:40;100440.09;;;14.65;58.92
11648;BME280;5880;52.342;9.662;2023-01-05T01:00:12;100437.34;;;14.65;58.88
11648;BME280;5880;52.342;9.662;2023-01-05T01:02:38;100448.59;;;14.63;59.01
11648;BME280;5880;52.342;9.662;2023-01-05T01:05:05;100445.84;;;14.63;58.93
11648;BME280;5880;52.342;9.662;2023-01-05T01:07:31;100449.69;;;14.62;58.89
11648;BME280;5880;52.342;9.662;2023-01-05T01:09:56;100444.75;;;14.64;58.94
11648;BME280;5880;52.342;9.662;2023-01-05T01:12:22;100458.53;;;14.64;58.81
11648;BME280;5880;52.342;9.662;2023-01-05T01:14:48;100448.34;;;14.65;58.73
11648;BME280;5880;52.342;9.662;2023-01-05T01:17:15;100457.94;;;14.62;58.62
11648;BME280;5880;52.342;9.662;2023-01-05T01:19:41;100449.66;;;14.57;58.54
11648;BME280;5880;52.342;9.662;2023-01-05T01:22:07;100464.81;;;14.60;58.54
11648;BME280;5880;52.342;9.662;2023-01-05T01:24:33;100465.06;;;14.58;58.65
11648;BME280;5880;52.342;9.662;2023-01-05T01:26:58;100467.00;;;14.57;58.65
11648;BME280;5880;52.342;9.662;2023-01-05T01:29:24;100474.16;;;14.59;58.68
11648;BME280;5880;52.342;9.662;2023-01-05T01:31:52;100466.72;;;14.59;58.72
11648;BME280;5880;52.342;9.662;2023-01-05T01:34:18;100467.56;;;14.60;58.73
11648;BME280;5880;52.342;9.662;2023-01-05T01:36:44;100468.13;;;14.62;58.64
11648;BME280;5880;52.342;9.662;2023-01-05T01:39:11;100466.19;;;14.62;58.73
11648;BME280;5880;52.342;9.662;2023-01-05T01:41:37;100467.84;;;14.63;58.71
11648;BME280;5880;52.342;9.662;2023-01-05T01:44:52;100476.94;;;14.64;58.58
11648;BME280;5880;52.342;9.662;2023-01-05T01:47:31;100474.44;;;14.62;58.71
11648;BME280;5880;52.342;9.662;2023-01-05T01:50:06;100484.34;;;14.63;58.62
11648;BME280;5880;52.342;9.662;2023-01-05T01:52:33;100479.94;;;14.62;58.66
11648;BME280;5880;52.342;9.662;2023-01-05T01:55:03;100483.53;;;14.63;58.58
11648;BME280;5880;52.342;9.662;2023-01-05T01:57:29;100488.47;;;14.61;58.71
11648;BME280;5880;52.342;9.662;2023-01-05T01:59:58;100490.13;;;14.62;58.57
11648;BME280;5880;52.342;9.662;2023-01-05T02:02:26;100483.81;;;14.61;58.54
11648;BME280;5880;52.342;9.662;2023-01-05T02:04:54;100471.41;;;14.59;58.55
11648;BME280;5880;52.342;9.662;2023-01-05T02:07:25;100485.72;;;14.61;58.57
11648;BME280;5880;52.342;9.662;2023-01-05T02:09:53;100484.88;;;14.60;58.47
11648;BME280;5880;52.342;9.662;2023-01-05T02:18:39;100485.94;;;14.54;58.42
11648;BME280;5880;52.342;9.662;2023-01-05T02:36:14;100473.41;;;14.41;58.72
11648;BME280;5880;52.342;9.662;2023-01-05T02:41:56;100475.34;;;14.41;58.70
11648;BME280;5880;52.342;9.662;2023-01-05T02:44:26;100471.50;;;14.42;58.67
11648;BME280;5880;52.342;9.662;2023-01-05T02:47:06;100469.06;;;14.45;58.58
11648;BME280;5880;52.342;9.662;2023-01-05T02:49:37;100477.84;;;14.42;58.71
11648;BME280;5880;52.342;9.662;2023-01-05T02:52:07;100476.41;;;14.40;58.60
11648;BME280;5880;52.342;9.662;2023-01-05T02:54:41;100486.38;;;14.46;58.64
11648;BME280;5880;52.342;9.662;2023-01-05T02:57:17;100496.56;;;14.45;58.58
11648;BME280;5880;52.342;9.662;2023-01-05T02:59:52;100502.31;;;14.44;58.62
11648;BME280;5880;52.342;9.662;2023-01-05T03:02:28;100510.84;;;14.42;58.55
11648;BME280;5880;52.342;9.662;2023-01-05T03:05:01;100511.09;;;14.41;58.49
11648;BME280;5880;52.342;9.662;2023-01-05T03:07:33;100493.19;;;14.38;58.65
11648;BME280;5880;52.342;9.662;2023-01-05T03:10:00;100526.69;;;14.35;58.69
11648;BME280;5880;52.342;9.662;2023-01-05T03:12:49;100520.06;;;14.31;58.64
11648;BME280;5880;52.342;9.662;2023-01-05T03:15:37;100523.06;;;14.29;58.74
11648;BME280;5880;52.342;9.662;2023-01-05T03:18:08;100519.75;;;14.27;58.66
11648;BME280;5880;52.342;9.662;2023-01-05T03:20:39;100523.31;;;14.28;58.69
11648;BME280;5880;52.342;9.662;2023-01-05T03:23:11;100517.81;;;14.28;58.75
11648;BME280;5880;52.342;9.662;2023-01-05T03:25:57;100509.53;;;14.23;58.80
11648;BME280;5880;52.342;9.662;2023-01-05T03:28:47;100519.69;;;14.22;58.79
11648;BME280;5880;52.342;9.662;2023-01-05T03:31:40;100532.88;;;14.20;58.98
11648;BME280;5880;52.342;9.662;2023-01-05T03:34:57;100535.94;;;14.24;58.96
11648;BME280;5880;52.342;9.662;2023-01-05T03:38:10;100523.81;;;14.20;58.88
11648;BME280;5880;52.342;9.662;2023-01-05T03:40:37;100528.19;;;14.21;59.03
11648;BME280;5880;52.342;9.662;2023-01-05T03:43:06;100525.19;;;14.22;58.95
11648;BME280;5880;52.342;9.662;2023-01-05T03:45:40;100535.66;;;14.25;58.99
11648;BME280;5880;52.342;9.662;2023-01-05T03:48:06;100527.69;;;14.24;58.99
11648;BME280;5880;52.342;9.662;2023-01-05T03:50:34;100532.91;;;14.25;58.96
11648;BME280;5880;52.342;9.662;2023-01-05T03:53:00;100533.19;;;14.24;58.92
11648;BME280;5880;52.342;9.662;2023-01-05T03:55:25;100547.50;;;14.26;58.92
11648;BME280;5880;52.342;9.662;2023-01-05T03:57:51;100541.16;;;14.25;58.91
11648;BME280;5880;52.342;9.662;2023-01-05T04:00:17;100553.00;;;14.26;58.98
11648;BME280;5880;52.342;9.662;2023-01-05T04:02:43;100540.91;;;14.27;58.91
11648;BME280;5880;52.342;9.662;2023-01-05T04:05:09;100547.50;;;14.26;58.89
11648;BME280;5880;52.342;9.662;2023-01-05T04:07:34;100554.66;;;14.27;58.90
11648;BME280;5880;52.342;9.662;2023-01-05T04:10:00;100548.59;;;14.25;58.87
11648;BME280;5880;52.342;9.662;2023-01-05T04:12:26;100552.72;;;14.27;58.94
11648;BME280;5880;52.342;9.662;2023-01-05T04:14:51;100547.81;;;14.29;59.17
11648;BME280;5880;52.342;9.662;2023-01-05T04:17:17;100544.81;;;14.31;58.82
11648;BME280;5880;52.342;9.662;2023-01-05T04:19:42;100553.06;;;14.31;58.90
11648;BME280;5880;52.342;9.662;2023-01-05T04:22:08;100551.38;;;14.30;58.85
11648;BME280;5880;52.342;9.662;2023-01-05T04:24:34;100552.50;;;14.29;58.95
11648;BME280;5880;52.342;9.662;2023-01-05T04:27:00;100555.81;;;14.31;58.99
11648;BME280;5880;52.342;9.662;2023-01-05T04:29:26;100566.53;;;14.32;58.82
11648;BME280;5880;52.342;9.662;2023-01-05T04:31:52;100561.03;;;14.32;58.85
11648;BME280;5880;52.342;9.662;2023-01-05T04:34:17;100570.94;;;14.33;58.85
11648;BME280;5880;52.342;9.662;2023-01-05T04:36:43;100575.63;;;14.33;58.69
11648;BME280;5880;52.342;9.662;2023-01-05T04:39:12;100578.38;;;14.33;58.64
11648;BME280;5880;52.342;9.662;2023-01-05T04:41:38;100589.88;;;14.30;58.65
11648;BME280;5880;52.342;9.662;2023-01-05T04:44:04;100586.53;;;14.28;58.70
11648;BME280;5880;52.342;9.662;2023-01-05T04:46:30;100584.03;;;14.21;58.70
11648;BME280;5880;52.342;9.662;2023-01-05T04:48:56;100596.41;;;14.24;58.53
11648;BME280;5880;52.342;9.662;2023-01-05T04:51:22;100579.28;;;14.17;58.66
11648;BME280;5880;52.342;9.662;2023-01-05T04:53:48;100587.25;;;14.18;58.68
11648;BME280;5880;52.342;9.662;2023-01-05T04:56:14;100595.78;;;14.17;58.92
11648;BME280;5880;52.342;9.662;2023-01-05T04:58:39;100586.97;;;14.14;58.72
11648;BME280;5880;52.342;9.662;2023-01-05T05:01:05;100593.81;;;14.12;58.81
11648;BME280;5880;52.342;9.662;2023-01-05T05:03:31;100601.72;;;14.08;58.89
11648;BME280;5880;52.342;9.662;2023-01-05T05:05:57;100604.72;;;14.07;58.74
11648;BME280;5880;52.342;9.662;2023-01-05T05:08:22;100597.00;;;14.04;58.81
11648;BME280;5880;52.342;9.662;2023-01-05T05:10:48;100620.06;;;14.03;58.78
11648;BME280;5880;52.342;9.662;2023-01-05T05:13:13;100609.31;;;14.01;58.86
11648;BME280;5880;52.342;9.662;2023-01-05T05:15:39;100615.91;;;14.00;58.83
11648;BME280;5880;52.342;9.662;2023-01-05T05:18:05;100620.84;;;13.98;58.96
11648;BME280;5880;52.342;9.662;2023-01-05T05:20:30;100609.28;;;13.96;59.09
11648;BME280;5880;52.342;9.662;2023-01-05T05:22:56;100624.06;;;13.95;58.95
11648;BME280;5880;52.342;9.662;2023-01-05T05:25:22;100620.19;;;13.91;59.11
11648;BME280;5880;52.342;9.662;2023-01-05T05:27:48;100605.88;;;13.89;59.06
11648;BME280;5880;52.342;9.662;2023-01-05T05:30:13;100617.44;;;13.91;58.97
11648;BME280;5880;52.342;9.662;2023-01-05T05:32:39;100620.44;;;13.89;59.13
11648;BME280;5880;52.342;9.662;2023-01-05T05:35:05;100622.38;;;13.89;59.00
11648;BME280;5880;52.342;9.662;2023-01-05T05:37:31;100634.19;;;13.89;59.18
11648;BME280;5880;52.342;9.662;2023-01-05T05:39:57;100632.53;;;13.88;59.13
11648;BME280;5880;52.342;9.662;2023-01-05T05:42:22;100627.84;;;13.89;59.34
11648;BME280;5880;52.342;9.662;2023-01-05T05:44:48;100623.19;;;13.89;59.26
11648;BME280;5880;52.342;9.662;2023-01-05T05:47:13;100635.00;;;13.90;59.10
11648;BME280;5880;52.342;9.662;2023-01-05T05:49:39;100641.06;;;13.92;59.19
11648;BME280;5880;52.342;9.662;2023-01-05T05:52:05;100638.91;;;13.94;59.28
11648;BME280;5880;52.342;9.662;2023-01-05T05:54:30;100652.66;;;13.94;59.41
11648;BME280;5880;52.342;9.662;2023-01-05T05:56:56;100652.59;;;13.89;59.18
11648;BME280;5880;52.342;9.662;2023-01-05T05:59:22;100655.97;;;13.96;59.25
11648;BME280;5880;52.342;9.662;2023-01-05T06:01:47;100674.13;;;13.97;59.15
11648;BME280;5880;52.342;9.662;2023-01-05T06:04:13;100678.53;;;13.98;59.09
11648;BME280;5880;52.342;9.662;2023-01-05T06:06:38;100662.06;;;13.98;59.16
11648;BME280;5880;52.342;9.662;2023-01-05T06:09:05;100668.63;;;13.97;59.24
11648;BME280;5880;52.342;9.662;2023-01-05T06:11:31;100671.63;;;13.96;59.21
11648;BME280;5880;52.342;9.662;2023-01-05T06:13:56;100676.28;;;13.95;59.21
11648;BME280;5880;52.342;9.662;2023-01-05T06:16:22;100682.03;;;13.93;59.27
11648;BME280;5880;52.342;9.662;2023-01-05T06:18:47;100687.53;;;13.93;59.33
11648;BME280;5880;52.342;9.662;2023-01-05T06:21:13;100683.13;;;13.92;59.27
11648;BME280;5880;52.342;9.662;2023-01-05T06:23:39;100694.09;;;13.92;59.36
11648;BME280;5880;52.342;9.662;2023-01-05T06:26:04;100696.84;;;13.92;59.37
11648;BME280;5880;52.342;9.662;2023-01-05T06:28:30;100688.53;;;13.87;59.26
11648;BME280;5880;52.342;9.662;2023-01-05T06:30:56;100693.53;;;13.90;59.33
11648;BME280;5880;52.342;9.662;2023-01-05T06:33:21;100703.09;;;13.88;59.44
11648;BME280;5880;52.342;9.662;2023-01-05T06:35:47;100701.22;;;13.88;59.52
11648;BME280;5880;52.342;9.662;2023-01-05T06:38:13;100710.00;;;13.90;59.45
11648;BME280;5880;52.342;9.662;2023-01-05T06:40:40;100712.50;;;13.92;59.38
11648;BME280;5880;52.342;9.662;2023-01-05T06:43:10;100712.28;;;13.93;59.55
11648;BME280;5880;52.342;9.662;2023-01-05T06:45:36;100709.25;;;13.95;59.39
11648;BME280;5880;52.342;9.662;2023-01-05T06:48:02;100707.38;;;13.96;59.31
11648;BME280;5880;52.342;9.662;2023-01-05T06:50:28;100715.59;;;13.96;59.48
11648;BME280;5880;52.342;9.662;2023-01-05T06:52:55;100735.91;;;13.94;59.63
11648;BME280;5880;52.342;9.662;2023-01-05T06:55:20;100736.19;;;13.93;59.45
11648;BME280;5880;52.342;9.662;2023-01-05T06:57:46;100726.00;;;13.93;59.59
11648;BME280;5880;52.342;9.662;2023-01-05T07:00:14;100740.34;;;13.96;59.60
11648;BME280;5880;52.342;9.662;2023-01-05T07:02:40;100751.88;;;13.98;59.56
11648;BME280;5880;52.342;9.662;2023-01-05T07:05:07;100737.31;;;13.97;59.50
11648;BME280;5880;52.342;9.662;2023-01-05T07:07:33;100750.22;;;13.97;59.49
11648;BME280;5880;52.342;9.662;2023-01-05T07:09:59;100746.13;;;13.99;59.50
11648;BME280;5880;52.342;9.662;2023-01-05T07:12:25;100754.16;;;14.01;59.40
11648;BME280;5880;52.342;9.662;2023-01-05T07:14:50;100749.47;;;14.01;59.31
11648;BME280;5880;52.342;9.662;2023-01-05T07:17:16;100750.56;;;14.00;59.31
11648;BME280;5880;52.342;9.662;2023-01-05T07:19:42;100767.88;;;14.01;59.39
11648;BME280;5880;52.342;9.662;2023-01-05T07:22:08;100771.13;;;13.98;59.43
11648;BME280;5880;52.342;9.662;2023-01-05T07:24:33;100756.31;;;13.99;59.43
11648;BME280;5880;52.342;9.662;2023-01-05T07:27:00;100768.38;;;13.98;59.42
11648;BME280;5880;52.342;9.662;2023-01-05T07:29:26;100763.47;;;14.00;59.48
11648;BME280;5880;52.342;9.662;2023-01-05T07:31:51;100785.19;;;14.01;59.36
11648;BME280;5880;52.342;9.662;2023-01-05T07:34:21;100765.13;;;14.01;59.37
11648;BME280;5880;52.342;9.662;2023-01-05T07:36:47;100781.63;;;14.01;59.38
11648;BME280;5880;52.342;9.662;2023-01-05T07:39:13;100780.53;;;14.02;59.36
11648;BME280;5880;52.342;9.662;2023-01-05T07:41:39;100783.28;;;14.02;59.22
11648;BME280;5880;52.342;9.662;2023-01-05T07:44:04;100781.63;;;14.01;59.39
11648;BME280;5880;52.342;9.662;2023-01-05T07:46:30;100778.59;;;14.02;59.39
11648;BME280;5880;52.342;9.662;2023-01-05T07:48:56;100794.03;;;14.03;59.36
11648;BME280;5880;52.342;9.662;2023-01-05T07:51:23;100807.78;;;14.03;59.37
11648;BME280;5880;52.342;9.662;2023-01-05T07:53:49;100800.34;;;14.04;59.52
11648;BME280;5880;52.342;9.662;2023-01-05T07:56:16;100803.91;;;14.04;59.37
11648;BME280;5880;52.342;9.662;2023-01-05T07:58:42;100800.59;;;14.02;59.34
11648;BME280;5880;52.342;9.662;2023-01-05T08:01:11;100813.50;;;14.02;59.33
11648;BME280;5880;52.342;9.662;2023-01-05T08:03:37;100805.78;;;13.99;59.37
11648;BME280;5880;52.342;9.662;2023-01-05T08:06:15;100810.44;;;13.98;59.32
11648;BME280;5880;52.342;9.662;2023-01-05T08:08:42;100813.44;;;13.97;59.36
11648;BME280;5880;52.342;9.662;2023-01-05T08:11:10;100823.59;;;13.96;59.25
11648;BME280;5880;52.342;9.662;2023-01-05T08:13:36;100823.50;;;13.91;59.44
11648;BME280;5880;52.342;9.662;2023-01-05T08:16:21;100818.84;;;13.91;59.57
11648;BME280;5880;52.342;9.662;2023-01-05T08:18:47;100817.75;;;13.92;59.63
11648;BME280;5880;52.342;9.662;2023-01-05T08:21:13;100810.03;;;13.89;59.58
11648;BME280;5880;52.342;9.662;2023-01-05T08:23:39;100816.09;;;13.91;59.64
11648;BME280;5880;52.342;9.662;2023-01-05T08:26:11;100829.09;;;13.96;59.67
11648;BME280;5880;52.342;9.662;2023-01-05T08:28:37;100829.09;;;13.96;59.81
11648;BME280;5880;52.342;9.662;2023-01-05T08:31:26;100836.00;;;13.99;59.68
11648;BME280;5880;52.342;9.662;2023-01-05T08:33:57;100838.75;;;13.99;59.58
11648;BME280;5880;52.342;9.662;2023-01-05T08:36:25;100854.41;;;13.98;59.78
11648;BME280;5880;52.342;9.662;2023-01-05T08:38:53;100850.56;;;13.99;59.77
11648;BME280;5880;52.342;9.662;2023-01-05T08:41:24;100844.00;;;14.00;59.67
11648;BME280;5880;52.342;9.662;2023-01-05T08:43:55;100857.97;;;13.99;59.54
11648;BME280;5880;52.342;9.662;2023-01-05T08:46:26;100856.88;;;14.00;59.81
11648;BME280;5880;52.342;9.662;2023-01-05T08:48:56;100863.78;;;14.02;59.78
11648;BME280;5880;52.342;9.662;2023-01-05T08:51:23;100868.22;;;14.03;59.92
11648;BME280;5880;52.342;9.662;2023-01-05T08:53:49;100870.16;;;14.03;59.70
11648;BME280;5880;52.342;9.662;2023-01-05T08:56:15;100873.47;;;14.05;59.85
11648;BME280;5880;52.342;9.662;2023-01-05T08:58:41;100872.97;;;14.08;60.05
11648;BME280;5880;52.342;9.662;2023-01-05T09:01:10;100878.78;;;14.11;59.92
11648;BME280;5880;52.342;9.662;2023-01-05T09:03:36;100886.28;;;14.16;59.95
11648;BME280;5880;52.342;9.662;2023-01-05T09:06:04;100884.72;;;14.20;59.93
11648;BME280;5880;52.342;9.662;2023-01-05T09:08:32;100894.13;;;14.24;59.83
11648;BME280;5880;52.342;9.662;2023-01-05T09:11:15;100902.47;;;14.29;59.88
11648;BME280;5880;52.342;9.662;2023-01-05T09:13:48;100900.28;;;14.31;59.90
11648;BME280;5880;52.342;9.662;2023-01-05T09:16:18;100897.31;;;14.33;59.84
11648;BME280;5880;52.342;9.662;2023-01-05T09:18:45;100897.31;;;14.33;59.68
11648;BME280;5880;52.342;9.662;2023-01-05T09:21:12;100897.31;;;14.33;59.77
11648;BME280;5880;52.342;9.662;2023-01-05T09:23:38;100900.63;;;14.35;59.71
11648;BME280;5880;52.342;9.662;2023-01-05T09:26:07;100907.56;;;14.38;59.88
11648;BME280;5880;52.342;9.662;2023-01-05T09:28:34;100917.47;;;14.39;59.77
11648;BME280;5880;52.342;9.662;2023-01-05T09:31:15;100929.88;;;14.41;59.71
11648;BME280;5880;52.342;9.662;2023-01-05T09:33:42;100938.34;;;14.40;59.73
11648;BME280;5880;52.342;9.662;2023-01-05T09:36:09;100938.13;;;14.41;59.77
11648;BME280;5880;52.342;9.662;2023-01-05T09:38:36;100943.38;;;14.43;59.61
11648;BME280;5880;52.342;9.662;2023-01-05T09:41:12;100931.56;;;14.42;59.49
11648;BME280;5880;52.342;9.662;2023-01-05T09:43:41;100950.53;;;14.44;59.54
11648;BME280;5880;52.342;9.662;2023-01-05T09:46:19;100948.59;;;14.44;59.40
11648;BME280;5880;52.342;9.662;2023-01-05T09:48:52;100961.53;;;14.44;59.43
11648;BME280;5880;52.342;9.662;2023-01-05T09:51:20;100959.06;;;14.42;59.46
11648;BME280;5880;52.342;9.662;2023-01-05T09:53:46;100960.94;;;14.42;59.36
11648;BME280;5880;52.342;9.662;2023-01-05T09:56:35;100977.22;;;14.43;59.23
11648;BME280;5880;52.342;9.662;2023-01-05T09:59:25;100979.38;;;14.41;59.23
11648;BME280;5880;52.342;9.662;2023-01-05T10:01:58;100977.13;;;14.38;59.24
11648;BME280;5880;52.342;9.662;2023-01-05T10:04:29;100985.03;;;14.34;59.32
11648;BME280;5880;52.342;9.662;2023-01-05T10:07:02;100991.63;;;14.33;59.46
11648;BME280;5880;52.342;9.662;2023-01-05T10:09:34;100995.19;;;14.34;59.59
11648;BME280;5880;52.342;9.662;2023-01-05T10:12:20;100990.88;;;14.38;59.65
11648;BME280;5880;52.342;9.662;2023-01-05T10:15:13;101010.72;;;14.40;59.83
11648;BME280;5880;52.342;9.662;2023-01-05T10:17:39;101020.63;;;14.41;59.77
11648;BME280;5880;52.342;9.662;2023-01-05T10:20:59;101014.59;;;14.44;59.62
11648;BME280;5880;52.342;9.662;2023-01-05T10:26:57;101025.59;;;14.44;59.54
11648;BME280;5880;52.342;9.662;2023-01-05T10:29:56;101021.19;;;14.43;59.61
11648;BME280;5880;52.342;9.662;2023-01-05T10:35:59;101039.13;;;14.46;59.53
11648;BME280;5880;52.342;9.662;2023-01-05T10:38:56;101050.34;;;14.44;59.52
11648;BME280;5880;52.342;9.662;2023-01-05T10:41:37;101049.53;;;14.44;59.52
11648;BME280;5880;52.342;9.662;2023-01-05T10:44:47;101050.63;;;14.43;59.41
11648;BME280;5880;52.342;9.662;2023-01-05T10:47:14;101048.63;;;14.38;59.45
11648;BME280;5880;52.342;9.662;2023-01-05T10:49:45;101049.81;;;14.42;59.54
11648;BME280;5880;52.342;9.662;2023-01-05T10:52:17;101051.53;;;14.48;59.50
11648;BME280;5880;52.342;9.662;2023-01-05T10:54:50;101051.03;;;14.51;59.44
11648;BME280;5880;52.342;9.662;2023-01-05T11:00:03;101054.38;;;14.53;59.60
11648;BME280;5880;52.342;9.662;2023-01-05T11:02:34;101051.50;;;14.60;59.39
11648;BME280;5880;52.342;9.662;2023-01-05T11:05:22;101052.69;;;14.64;59.60
11648;BME280;5880;52.342;9.662;2023-01-05T11:07:52;101058.78;;;14.66;59.24
11648;BME280;5880;52.342;9.662;2023-01-05T11:10:32;101059.69;;;14.72;59.50
11648;BME280;5880;52.342;9.662;2023-01-05T11:13:06;101064.69;;;14.75;59.19
11648;BME280;5880;52.342;9.662;2023-01-05T11:15:49;101076.03;;;14.78;59.40
11648;BME280;5880;52.342;9.662;2023-01-05T11:21:21;101073.34;;;14.84;59.31
11648;BME280;5880;52.342;9.662;2023-01-05T11:23:56;101087.72;;;14.86;59.07
11648;BME280;5880;52.342;9.662;2023-01-05T11:26:36;101086.88;;;14.85;59.17
11648;BME280;5880;52.342;9.662;2023-01-05T11:31:51;101088.63;;;14.91;59.16
11648;BME280;5880;52.342;9.662;2023-01-05T11:34:40;101077.94;;;14.95;59.23
11648;BME280;5880;52.342;9.662;2023-01-05T11:37:26;101071.09;;;14.97;59.19
11648;BME280;5880;52.342;9.662;2023-01-05T11:40:00;101076.84;;;14.96;59.03
11648;BME280;5880;52.342;9.662;2023-01-05T11:44:58;101079.19;;;15.04;58.83
11648;BME280;5880;52.342;9.662;2023-01-05T11:50:05;101083.94;;;15.09;58.80
11648;BME280;5880;52.342;9.662;2023-01-05T11:52:45;101073.78;;;15.09;58.94
11648;BME280;5880;52.342;9.662;2023-01-05T12:01:05;101091.97;;;15.10;58.87
11648;BME280;5880;52.342;9.662;2023-01-05T12:06:59;101088.88;;;15.07;58.97
11648;BME280;5880;52.342;9.662;2023-01-05T12:09:50;101086.47;;;15.10;58.86
11648;BME280;5880;52.342;9.662;2023-01-05T12:12:59;101098.53;;;15.09;58.69
11648;BME280;5880;52.342;9.662;2023-01-05T12:18:26;101111.41;;;15.04;58.54
11648;BME280;5880;52.342;9.662;2023-01-05T12:21:13;101116.56;;;15.00;58.19
11648;BME280;5880;52.342;9.662;2023-01-05T12:27:20;101117.16;;;14.85;57.78
11648;BME280;5880;52.342;9.662;2023-01-05T12:30:40;101134.91;;;14.77;57.66
11648;BME280;5880;52.342;9.662;2023-01-05T12:33:19;101125.72;;;14.72;57.81
11648;BME280;5880;52.342;9.662;2023-01-05T12:36:16;101128.38;;;14.67;57.73
11648;BME280;5880;52.342;9.662;2023-01-05T12:39:09;101119.44;;;14.60;57.87
11648;BME280;5880;52.342;9.662;2023-01-05T12:41:53;101121.09;;;14.61;57.85
11648;BME280;5880;52.342;9.662;2023-01-05T12:44:55;101126.50;;;14.55;57.93
11648;BME280;5880;52.342;9.662;2023-01-05T12:50:46;101135.28;;;14.41;57.92
11648;BME280;5880;52.342;9.662;2023-01-05T12:56:27;101152.66;;;14.29;57.95
11648;BME280;5880;52.342;9.662;2023-01-05T12:59:26;101143.72;;;14.22;58.10
11648;BME280;5880;52.342;9.662;2023-01-05T13:07:42;101143.34;;;14.19;58.55
11648;BME280;5880;52.342;9.662;2023-01-05T13:13:39;101151.59;;;14.19;58.72
11648;BME280;5880;52.342;9.662;2023-01-05T13:18:46;101155.53;;;14.23;58.85
11648;BME280;5880;52.342;9.662;2023-01-05T13:21:15;101153.63;;;14.23;58.85
11648;BME280;5880;52.342;9.662;2023-01-05T13:23:46;101154.22;;;14.25;58.83
11648;BME280;5880;52.342;9.662;2023-01-05T13:26:17;101148.97;;;14.24;58.70
11648;BME280;5880;52.342;9.662;2023-01-05T13:28:54;101165.47;;;14.24;58.80
11648;BME280;5880;52.342;9.662;2023-01-05T13:32:00;101168.69;;;14.21;58.54
11648;BME280;5880;52.342;9.662;2023-01-05T13:34:55;101174.91;;;14.16;58.70
11648;BME280;5880;52.342;9.662;2023-01-05T13:40:51;101186.06;;;14.09;58.80
11648;BME280;5880;52.342;9.662;2023-01-05T13:51:51;101201.59;;;14.04;58.77
11648;BME280;5880;52.342;9.662;2023-01-05T13:54:32;101200.19;;;14.01;58.95
11648;BME280;5880;52.342;9.662;2023-01-05T13:57:05;101202.94;;;14.01;59.22
11648;BME280;5880;52.342;9.662;2023-01-05T13:59:35;101205.44;;;14.03;59.13
11648;BME280;5880;52.342;9.662;2023-01-05T14:02:03;101215.84;;;14.01;58.91
11648;BME280;5880;52.342;9.662;2023-01-05T14:04:45;101212.97;;;13.96;58.97
11648;BME280;5880;52.342;9.662;2023-01-05T14:07:15;101220.84;;;13.92;58.80
11648;BME280;5880;52.342;9.662;2023-01-05T14:09:45;101223.25;;;13.88;58.83
11648;BME280;5880;52.342;9.662;2023-01-05T14:15:00;101226.34;;;13.80;58.68
11648;BME280;5880;52.342;9.662;2023-01-05T14:20:43;101228.88;;;13.70;58.90
11648;BME280;5880;52.342;9.662;2023-01-05T14:25:54;101227.66;;;13.66;58.92
11648;BME280;5880;52.342;9.662;2023-01-05T14:33:52;101254.53;;;13.64;58.97
11648;BME280;5880;52.342;9.662;2023-01-05T14:36:59;101261.56;;;13.60;58.84
11648;BME280;5880;52.342;9.662;2023-01-05T14:39:49;101262.28;;;13.55;58.84
11648;BME280;5880;52.342;9.662;2023-01-05T14:42:29;101269.34;;;13.51;58.86
11648;BME280;5880;52.342;9.662;2023-01-05T14:45:04;101278.88;;;13.48;58.87
11648;BME280;5880;52.342;9.662;2023-01-05T14:47:37;101283.78;;;13.46;58.95
11648;BME280;5880;52.342;9.662;2023-01-05T14:50:24;101288.66;;;13.44;58.79
11648;BME280;5880;52.342;9.662;2023-01-05T14:53:38;101289.13;;;13.41;58.80
11648;BME280;5880;52.342;9.662;2023-01-05T15:03:51;101294.25;;;13.38;58.78
11648;BME280;5880;52.342;9.662;2023-01-05T15:06:42;101298.91;;;13.37;58.95
11648;BME280;5880;52.342;9.662;2023-01-05T15:18:16;101307.25;;;13.30;58.82
11648;BME280;5880;52.342;9.662;2023-01-05T15:31:06;101325.09;;;13.21;58.98
11648;BME280;5880;52.342;9.662;2023-01-05T15:34:03;101324.47;;;13.19;58.98
11648;BME280;5880;52.342;9.662;2023-01-05T15:36:38;101327.59;;;13.23;59.17